createdAt,value
2019-05-06T00:02:27.520Z,99.90
2019-05-06T00:04:55.388Z,99.90
2019-05-06T00:07:24.277Z,99.90
2019-05-06T00:09:53.861Z,99.90
2019-05-06T00:12:23.857Z,99.90
2019-05-06T00:14:51.476Z,99.90
2019-05-06T00:17:19.261Z,99.90
2019-05-06T00:19:47.137Z,99.90
2019-05-06T00:22:14.920Z,99.90
2019-05-06T00:24:48.878Z,99.90
2019-05-06T00:27:28.778Z,99.90
2019-05-06T00:29:56.612Z,99.90
2019-05-06T00:32:24.470Z,99.90
2019-05-06T00:34:54.465Z,99.90
2019-05-06T00:37:23.994Z,99.90
2019-05-06T00:40:09.178Z,99.90
2019-05-06T00:42:40.484Z,99.90
2019-05-06T00:45:08.711Z,99.90
2019-05-06T00:47:36.495Z,99.90
2019-05-06T00:50:04.910Z,99.90
2019-05-06T00:52:33.964Z,99.90
2019-05-06T00:55:03.959Z,99.90
2019-05-06T00:57:44.086Z,99.90
2019-05-06T01:00:13.672Z,99.90
2019-05-06T01:02:43.828Z,99.90
2019-05-06T01:05:11.165Z,99.90
2019-05-06T01:07:38.952Z,99.90
2019-05-06T01:10:07.221Z,99.90
2019-05-06T01:12:36.143Z,99.90
2019-05-06T01:15:05.996Z,99.90
2019-05-06T01:17:33.940Z,99.90
2019-05-06T01:20:01.853Z,99.90
2019-05-06T01:22:29.660Z,99.90
2019-05-06T01:24:57.728Z,99.90
2019-05-06T01:27:25.510Z,99.90
2019-05-06T01:29:54.886Z,99.90
2019-05-06T01:32:23.654Z,99.90
2019-05-06T01:34:53.240Z,99.90
2019-05-06T01:37:21.425Z,99.90
2019-05-06T01:40:06.368Z,99.90
2019-05-06T01:42:41.291Z,99.90
2019-05-06T01:45:09.264Z,99.90
2019-05-06T01:47:37.131Z,99.90
2019-05-06T01:50:05.303Z,99.90
2019-05-06T01:52:34.458Z,99.90
2019-05-06T01:55:02.435Z,99.90
2019-05-06T01:57:30.207Z,99.90
2019-05-06T01:59:58.064Z,99.90
2019-05-06T02:02:25.931Z,99.90
2019-05-06T02:04:54.239Z,99.90
2019-05-06T02:07:24.168Z,99.90
2019-05-06T02:09:51.582Z,99.90
2019-05-06T02:12:19.353Z,99.90
2019-05-06T02:14:47.160Z,99.90
2019-05-06T02:17:14.973Z,99.90
2019-05-06T02:19:43.796Z,99.90
2019-05-06T02:22:27.646Z,99.90
2019-05-06T02:25:01.878Z,99.90
2019-05-06T02:27:29.736Z,99.90
2019-05-06T02:30:15.243Z,99.90
2019-05-06T02:33:15.393Z,99.90
2019-05-06T02:35:50.767Z,99.90
2019-05-06T02:38:33.891Z,99.90
2019-05-06T02:40:55.961Z,99.90
2019-05-06T02:43:23.805Z,99.90
2019-05-06T02:45:53.087Z,99.90
2019-05-06T02:48:39.100Z,99.90
2019-05-06T02:51:09.709Z,99.90
2019-05-06T02:53:37.505Z,99.90
2019-05-06T02:56:05.276Z,99.90
2019-05-06T02:58:33.253Z,99.90
2019-05-06T03:01:03.572Z,99.90
2019-05-06T03:03:33.367Z,99.90
2019-05-06T03:06:00.143Z,99.90
2019-05-06T03:08:27.911Z,99.90
2019-05-06T03:10:55.696Z,99.90
2019-05-06T03:13:23.911Z,99.90
2019-05-06T03:15:54.037Z,99.90
2019-05-06T03:18:23.635Z,99.90
2019-05-06T03:21:03.883Z,99.90
2019-05-06T03:23:34.903Z,99.90
2019-05-06T03:26:03.790Z,99.90
2019-05-06T03:28:33.378Z,99.90
2019-05-06T03:31:06.396Z,99.90
2019-05-06T03:33:50.667Z,99.90
2019-05-06T03:36:13.611Z,99.90
2019-05-06T03:38:29.729Z,99.90
2019-05-06T03:40:57.889Z,99.90
2019-05-06T03:43:25.664Z,99.90
2019-05-06T03:46:14.245Z,99.90
2019-05-06T03:48:44.520Z,99.90
2019-05-06T03:51:13.549Z,99.90
2019-05-06T03:53:43.380Z,99.90
2019-05-06T03:56:13.875Z,99.90
2019-05-06T03:58:43.465Z,99.90
2019-05-06T04:01:13.189Z,99.90
2019-05-06T04:03:47.713Z,99.90
2019-05-06T04:06:13.570Z,99.90
2019-05-06T04:08:43.490Z,99.90
2019-05-06T04:11:10.368Z,99.90
2019-05-06T04:13:38.240Z,99.90
2019-05-06T04:16:13.890Z,99.90
2019-05-06T04:18:45.439Z,99.90
2019-05-06T04:21:18.817Z,99.90
2019-05-06T04:24:04.652Z,99.90
2019-05-06T04:26:53.164Z,99.90
2019-05-06T04:29:20.305Z,99.90
2019-05-06T04:31:48.264Z,99.90
2019-05-06T04:34:19.606Z,99.90
2019-05-06T04:36:45.656Z,99.90
2019-05-06T04:39:13.485Z,99.90
2019-05-06T04:41:43.389Z,99.90
2019-05-06T04:44:13.534Z,99.90
2019-05-06T04:46:44.347Z,99.90
2019-05-06T04:49:14.892Z,99.90
2019-05-06T04:51:43.124Z,99.90
2019-05-06T04:54:13.414Z,99.90
2019-05-06T04:56:40.127Z,99.90
2019-05-06T04:59:08.022Z,99.90
2019-05-06T05:01:35.876Z,99.90
2019-05-06T05:04:03.802Z,99.90
2019-05-06T05:06:32.870Z,99.90
2019-05-06T05:09:02.792Z,99.90
2019-05-06T05:11:53.189Z,99.90
2019-05-06T05:14:37.768Z,99.90
2019-05-06T05:17:36.760Z,99.90
2019-05-06T05:20:05.279Z,99.90
2019-05-06T05:22:33.149Z,99.90
2019-05-06T05:25:03.520Z,99.90
2019-05-06T05:27:32.895Z,99.90
2019-05-06T05:30:01.913Z,99.90
2019-05-06T05:32:31.999Z,99.90
2019-05-06T05:35:01.905Z,99.90
2019-05-06T05:37:29.496Z,99.90
2019-05-06T05:39:57.271Z,99.90
2019-05-06T05:42:34.572Z,99.90
2019-05-06T05:45:02.808Z,99.90
2019-05-06T05:47:32.997Z,99.90
2019-05-06T05:50:07.889Z,99.90
2019-05-06T05:52:35.679Z,99.90
2019-05-06T05:55:03.739Z,99.90
2019-05-06T05:57:32.191Z,99.90
2019-05-06T06:00:00.497Z,99.90
2019-05-06T06:02:28.517Z,99.90
2019-05-06T06:04:57.612Z,99.90
2019-05-06T06:07:25.797Z,99.90
2019-05-06T06:10:02.715Z,99.90
2019-05-06T06:12:32.413Z,99.90
2019-05-06T06:15:17.576Z,99.90
2019-05-06T06:17:53.441Z,99.90
2019-05-06T06:20:50.301Z,99.90
2019-05-06T06:23:26.325Z,99.90
2019-05-06T06:25:54.596Z,99.90
2019-05-06T06:28:23.004Z,99.90
2019-05-06T06:30:57.727Z,99.90
2019-05-06T06:33:25.776Z,99.90
2019-05-06T06:36:02.504Z,99.90
2019-05-06T06:38:46.763Z,99.90
2019-05-06T06:41:14.636Z,99.90
2019-05-06T06:43:43.134Z,99.90
2019-05-06T06:46:12.651Z,99.90
2019-05-06T06:48:42.919Z,99.90
2019-05-06T06:51:12.256Z,99.90
2019-05-06T06:53:41.983Z,99.90
2019-05-06T06:56:37.372Z,99.90
2019-05-06T06:59:22.168Z,99.90
2019-05-06T07:02:04.453Z,99.90
2019-05-06T07:04:37.030Z,99.90
2019-05-06T07:07:05.181Z,99.90
2019-05-06T07:09:32.976Z,99.90
2019-05-06T07:12:03.315Z,99.90
2019-05-06T07:14:32.323Z,99.90
2019-05-06T07:16:59.848Z,99.90
2019-05-06T07:19:33.296Z,99.90
2019-05-06T07:22:02.866Z,99.90
2019-05-06T07:24:32.480Z,99.90
2019-05-06T07:27:14.351Z,99.90
2019-05-06T07:29:48.259Z,99.90
2019-05-06T07:32:12.262Z,99.90
2019-05-06T07:34:42.046Z,99.90
2019-05-06T07:37:09.846Z,99.90
2019-05-06T07:39:37.635Z,99.90
2019-05-06T07:42:13.211Z,99.90
2019-05-06T07:44:53.259Z,99.90
2019-05-06T07:47:34.454Z,99.90
2019-05-06T07:50:02.607Z,99.90
2019-05-06T07:52:32.427Z,99.90
2019-05-06T07:55:02.530Z,99.90
2019-05-06T07:57:30.028Z,99.90
2019-05-06T07:59:57.800Z,99.90
2019-05-06T08:02:25.624Z,99.90
2019-05-06T08:04:53.412Z,99.90
2019-05-06T08:07:22.334Z,99.90
2019-05-06T08:09:52.681Z,99.90
2019-05-06T08:12:22.263Z,99.90
2019-05-06T08:14:49.568Z,99.90
2019-05-06T08:17:23.585Z,99.90
2019-05-06T08:19:52.916Z,99.90
2019-05-06T08:22:23.824Z,99.90
2019-05-06T08:24:53.182Z,99.90
2019-05-06T08:27:22.736Z,99.90
2019-05-06T08:29:52.631Z,99.90
2019-05-06T08:32:20.290Z,99.90
2019-05-06T08:34:48.092Z,99.90
2019-05-06T08:37:24.625Z,99.90
2019-05-06T08:39:52.785Z,99.90
2019-05-06T08:42:22.455Z,99.90
2019-05-06T08:44:52.877Z,99.90
2019-05-06T08:47:22.223Z,99.90
2019-05-06T08:50:08.936Z,99.90
2019-05-06T08:52:56.028Z,99.90
2019-05-06T08:55:29.784Z,99.90
2019-05-06T08:57:57.661Z,99.90
2019-05-06T09:00:25.464Z,99.90
2019-05-06T09:02:53.280Z,99.90
2019-05-06T09:05:22.308Z,99.90
2019-05-06T09:07:52.251Z,99.90
2019-05-06T09:10:19.969Z,99.90
2019-05-06T09:12:47.836Z,99.90
2019-05-06T09:15:15.672Z,99.90
2019-05-06T09:17:43.457Z,99.90
2019-05-06T09:20:13.005Z,99.90
2019-05-06T09:22:42.966Z,99.90
2019-05-06T09:25:12.717Z,99.90
2019-05-06T09:27:54.396Z,99.90
2019-05-06T09:30:33.050Z,99.90
2019-05-06T09:33:02.598Z,99.90
2019-05-06T09:35:32.807Z,99.90
2019-05-06T09:38:02.068Z,99.90
2019-05-06T09:40:31.773Z,99.90
2019-05-06T09:42:59.220Z,99.90
2019-05-06T09:45:27.041Z,99.90
2019-05-06T09:48:03.310Z,99.90
2019-05-06T09:50:33.989Z,99.90
2019-05-06T09:53:02.512Z,99.90
2019-05-06T09:55:36.441Z,99.90
2019-05-06T09:58:05.961Z,99.90
2019-05-06T10:00:36.160Z,99.90
2019-05-06T10:03:04.156Z,99.90
2019-05-06T10:05:32.004Z,99.90
2019-05-06T10:07:59.885Z,99.90
2019-05-06T10:10:27.740Z,99.90
2019-05-06T10:12:55.634Z,99.90
2019-05-06T10:15:23.613Z,99.90
2019-05-06T10:18:16.512Z,99.90
2019-05-06T10:20:45.343Z,99.90
2019-05-06T10:23:13.425Z,99.90
2019-05-06T10:25:43.578Z,99.90
2019-05-06T10:28:17.218Z,99.90
2019-05-06T10:30:45.037Z,99.90
2019-05-06T10:33:16.005Z,99.90
2019-05-06T10:35:43.812Z,99.90
2019-05-06T10:38:20.332Z,99.90
2019-05-06T10:41:02.791Z,99.90
2019-05-06T10:43:26.899Z,99.90
2019-05-06T10:45:54.705Z,99.90
2019-05-06T10:48:22.677Z,99.90
2019-05-06T10:50:53.355Z,99.90
2019-05-06T10:53:23.372Z,99.90
2019-05-06T10:55:53.756Z,99.90
2019-05-06T10:58:22.531Z,99.90
2019-05-06T11:00:54.629Z,99.90
2019-05-06T11:03:22.915Z,99.90
2019-05-06T11:05:53.275Z,99.90
2019-05-06T11:08:22.119Z,99.90
2019-05-06T11:10:53.216Z,99.90
2019-05-06T11:13:20.148Z,99.90
2019-05-06T11:15:47.961Z,99.90
2019-05-06T11:18:15.759Z,99.90
2019-05-06T11:20:44.192Z,99.90
2019-05-06T11:23:14.250Z,99.90
2019-05-06T11:25:43.239Z,99.90
2019-05-06T11:28:29.518Z,99.90
2019-05-06T11:31:14.176Z,99.90
2019-05-06T11:33:55.488Z,99.90
2019-05-06T11:36:32.327Z,99.90
2019-05-06T11:39:00.157Z,99.90
2019-05-06T11:41:28.004Z,99.90
2019-05-06T11:43:55.788Z,99.90
2019-05-06T11:46:23.627Z,99.90
2019-05-06T11:48:52.232Z,99.90
2019-05-06T11:51:23.083Z,99.90
2019-05-06T11:53:53.914Z,99.90
2019-05-06T11:56:22.901Z,99.90
2019-05-06T11:58:53.185Z,99.90
2019-05-06T12:01:25.097Z,99.90
2019-05-06T12:03:53.050Z,99.90
2019-05-06T12:06:22.671Z,99.90
2019-05-06T12:08:52.257Z,99.90
2019-05-06T12:11:19.974Z,99.90
2019-05-06T12:13:47.809Z,99.90
2019-05-06T12:16:15.615Z,99.90
2019-05-06T12:18:43.484Z,99.90
2019-05-06T12:21:18.458Z,99.90
2019-05-06T12:23:44.282Z,99.90
2019-05-06T12:26:10.550Z,99.90
2019-05-06T12:28:38.378Z,99.90
2019-05-06T12:31:06.166Z,99.90
2019-05-06T12:33:38.058Z,99.90
2019-05-06T12:36:14.637Z,99.90
2019-05-06T12:39:06.426Z,99.90
2019-05-06T12:41:33.503Z,99.90
2019-05-06T12:44:03.145Z,99.90
2019-05-06T12:46:35.263Z,99.90
2019-05-06T12:49:03.298Z,99.90
2019-05-06T12:51:32.278Z,99.90
2019-05-06T12:54:00.256Z,99.90
2019-05-06T12:56:28.849Z,97.40
2019-05-06T12:58:56.644Z,95.90
2019-05-06T13:01:24.511Z,92.90
2019-05-06T13:03:52.679Z,92.00
2019-05-06T13:06:25.983Z,93.30
2019-05-06T13:08:58.641Z,95.50
2019-05-06T13:11:21.120Z,93.50
2019-05-06T13:13:59.820Z,93.30
2019-05-06T13:16:18.729Z,92.70
2019-05-06T13:18:47.317Z,91.80
2019-05-06T13:21:16.103Z,91.30
2019-05-06T13:23:47.630Z,92.10
2019-05-06T13:26:15.433Z,91.40
2019-05-06T13:28:47.437Z,92.00
2019-05-06T13:31:20.706Z,92.60
2019-05-06T13:33:54.613Z,93.20
2019-05-06T13:36:22.642Z,94.50
2019-05-06T13:39:01.436Z,94.60
2019-05-06T13:41:22.153Z,94.90
2019-05-06T13:44:05.544Z,94.80
2019-05-06T13:46:36.187Z,95.10
2019-05-06T13:49:23.604Z,95.80
2019-05-06T13:52:04.477Z,97.40
2019-05-06T13:54:32.247Z,99.90
2019-05-06T13:57:02.742Z,99.90
2019-05-06T13:59:30.859Z,99.90
2019-05-06T14:02:10.483Z,99.90
2019-05-06T14:04:38.412Z,99.90
2019-05-06T14:07:07.356Z,99.90
2019-05-06T14:09:40.354Z,99.90
2019-05-06T14:12:05.057Z,99.90
2019-05-06T14:14:32.858Z,99.90
2019-05-06T14:17:00.646Z,99.90
2019-05-06T14:19:28.643Z,99.90
2019-05-06T14:21:56.432Z,99.90
2019-05-06T14:24:24.234Z,99.90
2019-05-06T14:27:11.812Z,99.90
2019-05-06T14:29:48.326Z,99.90
2019-05-06T14:32:16.109Z,99.90
2019-05-06T14:34:44.266Z,99.90
2019-05-06T14:37:12.063Z,99.90
2019-05-06T14:39:52.636Z,99.90
2019-05-06T14:42:13.140Z,99.90
2019-05-06T14:44:43.049Z,99.90
2019-05-06T14:47:15.387Z,99.90
2019-05-06T14:49:43.434Z,99.90
2019-05-06T14:52:13.180Z,99.90
2019-05-06T14:54:49.751Z,99.90
2019-05-06T14:57:18.204Z,99.90
2019-05-06T14:59:46.012Z,99.90
2019-05-06T15:02:14.259Z,99.90
2019-05-06T15:04:43.452Z,99.90
2019-05-06T15:07:12.674Z,99.90
2019-05-06T15:09:55.859Z,99.90
2019-05-06T15:12:12.965Z,99.90
2019-05-06T15:14:42.460Z,99.90
2019-05-06T15:17:10.512Z,99.90
2019-05-06T15:19:38.302Z,99.90
2019-05-06T15:22:06.100Z,99.90
2019-05-06T15:24:33.891Z,99.90
2019-05-06T15:27:02.764Z,99.90
2019-05-06T15:29:30.761Z,99.90
2019-05-06T15:32:08.524Z,99.90
2019-05-06T15:34:42.420Z,99.90
2019-05-06T15:37:16.650Z,99.90
2019-05-06T15:39:44.458Z,99.90
2019-05-06T15:42:12.843Z,99.90
2019-05-06T15:44:42.488Z,99.90
2019-05-06T15:47:13.025Z,99.90
2019-05-06T15:49:41.906Z,99.90
2019-05-06T15:52:12.305Z,99.90
2019-05-06T15:54:39.424Z,99.90
2019-05-06T15:57:07.245Z,99.90
2019-05-06T15:59:35.073Z,99.90
2019-05-06T16:02:02.952Z,99.90
2019-05-06T16:04:32.541Z,99.90
2019-05-06T16:07:02.380Z,99.90
2019-05-06T16:09:32.312Z,99.90
2019-05-06T16:11:59.484Z,99.90
2019-05-06T16:14:27.289Z,99.90
2019-05-06T16:16:55.099Z,99.90
2019-05-06T16:19:23.131Z,99.90
2019-05-06T16:21:52.367Z,99.90
2019-05-06T16:24:24.855Z,99.90
2019-05-06T16:26:52.822Z,99.90
2019-05-06T16:29:35.196Z,99.90
2019-05-06T16:32:03.780Z,99.90
2019-05-06T16:34:32.362Z,99.90
2019-05-06T16:37:01.910Z,99.90
2019-05-06T16:39:32.138Z,99.90
2019-05-06T16:41:59.727Z,99.90
2019-05-06T16:44:27.593Z,99.90
2019-05-06T16:46:55.403Z,99.90
2019-05-06T16:49:23.283Z,99.90
2019-05-06T16:51:52.475Z,99.90
2019-05-06T16:54:20.444Z,99.90
2019-05-06T16:57:02.306Z,99.90
2019-05-06T16:59:30.215Z,99.90
2019-05-06T17:01:59.701Z,99.90
2019-05-06T17:04:52.692Z,99.90
2019-05-06T17:07:22.214Z,99.90
2019-05-06T17:09:52.486Z,99.90
2019-05-06T17:12:19.742Z,99.90
2019-05-06T17:14:47.531Z,99.90
2019-05-06T17:17:15.336Z,99.90
2019-05-06T17:19:43.132Z,99.90
2019-05-06T17:22:12.334Z,99.90
2019-05-06T17:24:42.206Z,99.90
2019-05-06T17:27:11.926Z,99.90
2019-05-06T17:30:04.360Z,99.90
2019-05-06T17:32:37.432Z,99.90
2019-05-06T17:35:06.620Z,99.90
2019-05-06T17:37:48.531Z,99.90
2019-05-06T17:40:17.115Z,99.90
2019-05-06T17:42:44.925Z,99.90
2019-05-06T17:45:32.219Z,99.90
2019-05-06T17:48:06.372Z,99.90
2019-05-06T17:50:34.477Z,99.90
2019-05-06T17:53:02.400Z,99.90
2019-05-06T17:55:32.281Z,99.90
2019-05-06T17:58:02.337Z,99.90
2019-05-06T18:00:29.460Z,99.90
2019-05-06T18:02:57.286Z,99.90
2019-05-06T18:05:25.066Z,99.90
2019-05-06T18:07:52.869Z,99.90
2019-05-06T18:10:22.134Z,99.90
2019-05-06T18:12:52.914Z,99.90
2019-05-06T18:15:19.778Z,99.90
2019-05-06T18:17:47.580Z,99.90
2019-05-06T18:20:15.488Z,99.90
2019-05-06T18:22:43.274Z,99.90
2019-05-06T18:25:12.667Z,99.90
2019-05-06T18:27:40.596Z,99.90
2019-05-06T18:30:19.328Z,99.90
2019-05-06T18:32:38.101Z,99.90
2019-05-06T18:35:06.470Z,99.90
2019-05-06T18:37:34.248Z,99.90
2019-05-06T18:40:02.068Z,99.90
2019-05-06T18:42:30.178Z,99.90
2019-05-06T18:44:58.043Z,99.90
2019-05-06T18:47:25.816Z,99.90
2019-05-06T18:49:54.960Z,99.90
2019-05-06T18:52:22.999Z,99.90
2019-05-06T18:54:52.441Z,99.90
2019-05-06T18:57:22.569Z,99.90
2019-05-06T18:59:49.932Z,99.90
2019-05-06T19:02:17.976Z,99.90
2019-05-06T19:04:56.332Z,99.90
2019-05-06T19:07:24.372Z,99.90
2019-05-06T19:10:12.915Z,99.90
2019-05-06T19:12:41.588Z,99.90
2019-05-06T19:15:09.916Z,99.90
2019-05-06T19:17:37.708Z,99.90
2019-05-06T19:20:05.733Z,99.90
2019-05-06T19:22:33.616Z,99.90
2019-05-06T19:25:02.612Z,99.90
2019-05-06T19:27:32.826Z,99.90
2019-05-06T19:30:02.472Z,99.90
2019-05-06T19:32:30.015Z,99.90
2019-05-06T19:34:57.832Z,99.90
2019-05-06T19:37:25.629Z,99.90
2019-05-06T19:39:53.425Z,99.90
2019-05-06T19:42:22.444Z,99.90
2019-05-06T19:44:52.598Z,99.90
2019-05-06T19:47:20.359Z,99.90
2019-05-06T19:49:48.303Z,99.90
2019-05-06T19:52:16.094Z,99.90
2019-05-06T19:54:43.931Z,99.90
2019-05-06T19:57:12.162Z,99.90
2019-05-06T19:59:42.371Z,99.90
2019-05-06T20:02:12.714Z,99.90
2019-05-06T20:04:44.062Z,99.90
2019-05-06T20:07:35.838Z,99.90
2019-05-06T20:10:16.898Z,99.90
2019-05-06T20:12:59.451Z,99.90
2019-05-06T20:15:42.705Z,99.90
2019-05-06T20:18:10.469Z,99.90
2019-05-06T20:20:38.445Z,99.90
2019-05-06T20:23:06.439Z,99.90
2019-05-06T20:25:36.946Z,99.90
2019-05-06T20:28:04.647Z,99.90
2019-05-06T20:30:32.900Z,99.90
2019-05-06T20:33:00.775Z,99.90
2019-05-06T20:35:28.612Z,99.90
2019-05-06T20:37:56.750Z,99.90
2019-05-06T20:40:24.949Z,99.90
2019-05-06T20:42:52.854Z,99.90
2019-05-06T20:45:22.371Z,99.90
2019-05-06T20:47:52.326Z,99.90
2019-05-06T20:50:19.723Z,99.90
2019-05-06T20:52:47.800Z,99.90
2019-05-06T20:55:16.171Z,99.90
2019-05-06T20:57:44.084Z,99.90
2019-05-06T21:00:12.903Z,99.90
2019-05-06T21:02:42.572Z,99.90
2019-05-06T21:05:13.649Z,99.90
2019-05-06T21:07:40.537Z,99.90
2019-05-06T21:10:08.692Z,99.90
2019-05-06T21:12:36.503Z,99.90
2019-05-06T21:15:05.882Z,99.90
2019-05-06T21:17:33.741Z,99.90
2019-05-06T21:20:02.783Z,99.90
2019-05-06T21:22:32.003Z,99.90
2019-05-06T21:25:02.244Z,99.90
2019-05-06T21:27:29.579Z,99.90
2019-05-06T21:29:57.548Z,99.90
2019-05-06T21:32:25.374Z,99.90
2019-05-06T21:34:53.152Z,99.90
2019-05-06T21:37:22.513Z,99.90
2019-05-06T21:39:52.885Z,99.90
2019-05-06T21:42:20.117Z,99.90
2019-05-06T21:44:48.027Z,99.90
2019-05-06T21:47:15.846Z,99.90
2019-05-06T21:49:43.640Z,99.90
2019-05-06T21:52:13.111Z,99.90
2019-05-06T21:54:43.334Z,99.90
2019-05-06T21:57:12.219Z,99.90
2019-05-06T21:59:42.620Z,99.90
2019-05-06T22:02:11.984Z,99.90
2019-05-06T22:04:39.927Z,99.90
2019-05-06T22:07:07.735Z,99.90
2019-05-06T22:09:35.712Z,99.90
2019-05-06T22:12:03.935Z,99.90
2019-05-06T22:14:32.559Z,99.90
2019-05-06T22:17:03.917Z,99.90
2019-05-06T22:19:32.013Z,99.90
2019-05-06T22:22:03.382Z,99.90
2019-05-06T22:24:42.748Z,99.90
2019-05-06T22:27:12.291Z,99.90
2019-05-06T22:29:42.522Z,99.90
2019-05-06T22:32:11.874Z,99.90
2019-05-06T22:34:39.286Z,99.90
2019-05-06T22:37:07.116Z,99.90
2019-05-06T22:39:35.020Z,99.90
2019-05-06T22:42:03.062Z,99.90
2019-05-06T22:44:32.464Z,99.90
2019-05-06T22:47:02.614Z,99.90
2019-05-06T22:49:32.010Z,99.90
2019-05-06T22:51:59.856Z,99.90
2019-05-06T22:54:27.641Z,99.90
2019-05-06T22:56:55.459Z,99.90
2019-05-06T22:59:24.611Z,99.90
2019-05-06T23:02:13.128Z,99.90
2019-05-06T23:04:43.107Z,99.90
2019-05-06T23:07:11.100Z,99.90
2019-05-06T23:09:38.897Z,99.90
2019-05-06T23:12:06.736Z,99.90
2019-05-06T23:14:37.119Z,99.90
2019-05-06T23:17:04.124Z,99.90
2019-05-06T23:19:31.935Z,99.90
2019-05-06T23:21:59.671Z,99.90
2019-05-06T23:24:27.457Z,99.90
2019-05-06T23:26:55.233Z,99.90
2019-05-06T23:29:23.029Z,99.90
2019-05-06T23:31:52.143Z,99.90
2019-05-06T23:34:20.177Z,99.90
2019-05-06T23:37:17.365Z,99.90
2019-05-06T23:40:05.120Z,99.90
2019-05-06T23:42:52.671Z,99.90
2019-05-06T23:45:38.824Z,99.90
2019-05-06T23:48:25.089Z,99.90
2019-05-06T23:51:12.721Z,99.90
2019-05-06T23:53:59.014Z,99.90
2019-05-06T23:56:38.461Z,99.90
2019-05-06T23:59:06.350Z,99.90
